Time;durP1;ratioP1;P1;durP2;ratioP2;P2;SDS_P1;SDS_P2;PMS_P1;PMS_P2;Temp;Humidity;BMP_temperature;BMP_pressure;BME280_temperature;BME280_humidity;BME280_pressure;Samples;Min_cycle;Max_cycle;Signal;HPM_P1;HPM_P2
2024/01/25 00:02:28;;;;;;;12.50;1.97;;;;;;;-145.69;64.41;52303.78;5135347;27;20225;-80
2024/01/25 00:04:55;;;;;;;17.20;2.20;;;;;;;-145.69;64.74;52276.06;5134901;27;20578;-80
2024/01/25 00:07:22;;;;;;;10.07;3.07;;;;;;;-145.69;64.57;52262.19;5135035;27;20221;-81
2024/01/25 00:09:53;;;;;;;19.20;2.27;;;;;;;-145.69;63.80;52301.81;5135014;27;20200;-80
2024/01/25 00:12:25;;;;;;;14.03;2.30;;;;;;;-145.69;63.80;52283.97;5134816;27;20197;-80
2024/01/25 00:14:52;;;;;;;20.52;2.47;;;;;;;-145.69;64.74;52276.06;5133594;27;20437;-80
2024/01/25 00:17:19;;;;;;;15.40;2.73;;;;;;;-145.69;63.45;52246.34;5135040;27;20223;-80
2024/01/25 00:19:45;;;;;;;20.07;2.27;;;;;;;-145.69;63.18;52274.06;5134786;27;20197;-80
2024/01/25 00:22:13;;;;;;;15.10;2.57;;;;;;;-145.69;61.95;52278.03;5134708;27;20247;-80
2024/01/25 00:24:43;;;;;;;16.83;2.43;;;;;;;-145.69;62.26;52242.38;5134712;27;20208;-80
2024/01/25 00:27:10;;;;;;;8.63;2.10;;;;;;;-145.69;61.85;52226.53;5134601;27;20235;-81
2024/01/25 00:29:37;;;;;;;11.13;2.23;;;;;;;-145.69;61.71;52238.44;5134416;27;20579;-82
2024/01/25 00:32:04;;;;;;;14.23;2.07;;;;;;;-145.69;61.64;52274.06;5134654;27;20196;-82
2024/01/25 00:34:31;;;;;;;13.70;2.70;;;;;;;-145.69;62.21;52262.19;5134039;27;20192;-82
2024/01/25 00:36:58;;;;;;;9.53;2.40;;;;;;;-145.69;62.40;52246.34;5134294;27;20210;-80
2024/01/25 00:39:27;;;;;;;13.60;2.07;;;;;;;-145.69;62.42;52250.31;5113732;28;20218;-82
2024/01/25 00:42:03;;;;;;;7.17;1.80;;;;;;;-145.69;62.01;52238.44;5114952;27;20193;-82
2024/01/25 00:44:30;;;;;;;15.00;2.10;;;;;;;-145.69;62.01;52289.91;5113828;28;20205;-81
2024/01/25 00:46:57;;;;;;;11.80;1.80;;;;;;;-145.69;61.96;52246.34;5113532;28;20236;-81
2024/01/25 00:49:25;;;;;;;12.17;2.20;;;;;;;-145.69;62.00;52250.31;5130995;27;20233;-81
2024/01/25 00:51:56;;;;;;;7.53;1.80;;;;;;;-145.69;62.23;52268.13;5134129;27;20643;-81
2024/01/25 00:54:23;;;;;;;12.10;2.50;;;;;;;-145.69;62.44;52256.25;5134070;27;20259;-81
2024/01/25 00:56:52;;;;;;;10.00;2.23;;;;;;;-145.69;62.88;52264.16;5133480;27;20551;-81
2024/01/25 00:59:19;;;;;;;8.77;1.83;;;;;;;-145.69;62.71;52246.34;5133681;27;20197;-80
2024/01/25 01:01:47;;;;;;;10.87;1.73;;;;;;;-145.69;62.84;52242.38;5114592;27;20202;-81
2024/01/25 01:04:14;;;;;;;20.07;2.37;;;;;;;-145.69;63.44;52266.16;5133601;27;20192;-81
2024/01/25 01:06:41;;;;;;;10.17;1.90;;;;;;;-145.69;62.50;52248.34;5133800;27;20221;-81
2024/01/25 01:09:08;;;;;;;12.75;2.30;;;;;;;-145.69;64.32;52228.53;5132753;27;20430;-80
2024/01/25 01:11:36;;;;;;;14.47;2.10;;;;;;;-145.69;63.17;52285.97;5133489;27;20197;-80
2024/01/25 01:14:04;;;;;;;7.13;2.07;;;;;;;-145.69;62.87;52270.13;5133167;27;20678;-81
2024/01/25 01:16:33;;;;;;;7.60;1.80;;;;;;;-145.69;62.67;52287.94;5133618;27;20204;-81
2024/01/25 01:19:05;;;;;;;10.93;1.80;;;;;;;-145.69;62.54;52222.59;5133484;27;20246;-81
2024/01/25 01:21:34;;;;;;;10.53;2.10;;;;;;;-145.69;61.89;52266.16;5133509;27;20197;-81
2024/01/25 01:24:03;;;;;;;13.97;2.20;;;;;;;-145.69;62.75;52268.13;5132516;27;20280;-82
2024/01/25 01:26:29;;;;;;;15.00;1.70;;;;;;;-145.69;64.31;52270.13;5133323;27;20236;-82
2024/01/25 01:28:56;;;;;;;12.17;1.60;;;;;;;-145.69;63.91;52274.06;5133247;27;20194;-80
2024/01/25 01:31:24;;;;;;;8.57;2.10;;;;;;;-145.69;64.26;52282.00;5133507;27;20200;-80
2024/01/25 01:33:53;;;;;;;12.60;2.13;;;;;;;-145.69;63.19;52278.03;5133736;27;20208;-82
2024/01/25 01:36:20;;;;;;;7.17;2.00;;;;;;;-145.69;63.21;52315.66;5133407;27;20197;-81
2024/01/25 01:38:46;;;;;;;9.87;1.97;;;;;;;-145.69;63.46;52289.91;5133581;27;20201;-81
2024/01/25 01:41:13;;;;;;;10.23;1.60;;;;;;;-145.69;63.08;52256.25;5132760;28;20208;-81
2024/01/25 01:43:40;;;;;;;12.80;1.60;;;;;;;-145.69;63.50;52280.00;5133214;28;20268;-81
2024/01/25 01:46:11;;;;;;;7.10;1.70;;;;;;;-145.69;63.89;52270.13;5133576;27;20208;-81
2024/01/25 01:48:39;;;;;;;6.60;1.60;;;;;;;-145.69;63.10;52280.00;5132895;27;20264;-79
2024/01/25 01:51:06;;;;;;;15.67;2.10;;;;;;;-145.69;63.66;52264.16;5133157;27;20208;-82
2024/01/25 01:53:33;;;;;;;4.10;1.50;;;;;;;-145.69;63.12;52238.44;5133156;27;20553;-80
2024/01/25 01:56:00;;;;;;;7.90;2.10;;;;;;;-145.69;63.00;52289.91;5137717;27;20283;-80
2024/01/25 01:58:29;;;;;;;5.53;1.70;;;;;;;-145.69;63.00;52278.03;5137550;27;20188;-80
2024/01/25 02:00:56;;;;;;;5.97;1.63;;;;;;;-145.69;62.93;52268.13;5137604;27;20299;-81
2024/01/25 02:03:23;;;;;;;11.93;1.67;;;;;;;-145.69;62.06;52274.06;5137527;27;20197;-80
2024/01/25 02:05:51;;;;;;;9.77;1.80;;;;;;;-145.69;62.47;52274.06;5137459;27;20204;-81
2024/01/25 02:08:17;;;;;;;7.10;1.40;;;;;;;-145.69;62.19;52282.00;5137139;27;20216;-80
2024/01/25 02:10:44;;;;;;;12.57;1.70;;;;;;;-145.69;62.36;52274.06;5137049;27;20197;-81
2024/01/25 02:13:10;;;;;;;7.40;1.70;;;;;;;-145.69;62.94;52278.03;5137423;27;20246;-80
2024/01/25 02:15:36;;;;;;;6.23;1.40;;;;;;;-145.69;63.27;52270.13;5137064;27;20201;-81
2024/01/25 02:18:04;;;;;;;6.60;1.33;;;;;;;-145.69;63.39;52325.56;5137236;27;20649;-81
2024/01/25 02:20:30;;;;;;;8.10;1.57;;;;;;;-145.69;63.49;52313.69;5137010;27;20197;-81
2024/01/25 02:22:58;;;;;;;6.67;1.73;;;;;;;-145.69;62.94;52303.78;5137465;27;20204;-81
2024/01/25 02:25:24;;;;;;;6.73;1.50;;;;;;;-145.69;63.16;52317.66;5137260;27;20200;-80
2024/01/25 02:27:51;;;;;;;6.77;1.37;;;;;;;-145.69;62.71;52276.06;5136637;27;20244;-80
2024/01/25 02:30:17;;;;;;;9.53;1.60;;;;;;;-145.69;62.44;52297.84;5136962;27;20192;-81
2024/01/25 02:32:44;;;;;;;4.00;1.30;;;;;;;-145.69;62.59;52282.00;5136690;27;20205;-81
2024/01/25 02:35:10;;;;;;;6.87;1.50;;;;;;;-145.69;62.49;52299.81;5136874;27;20651;-81
2024/01/25 02:37:37;;;;;;;11.30;1.70;;;;;;;-145.69;62.71;52274.06;5136762;27;20197;-81
2024/01/25 02:40:05;;;;;;;8.30;1.53;;;;;;;-145.69;62.26;52262.19;5136979;27;20204;-81
2024/01/25 02:42:32;;;;;;;7.13;1.53;;;;;;;-145.69;62.05;52297.84;5136993;27;20219;-81
2024/01/25 02:44:58;;;;;;;3.03;1.20;;;;;;;-145.69;62.54;52311.69;5136457;27;20604;-80
2024/01/25 02:47:27;;;;;;;7.37;1.30;;;;;;;-145.69;62.18;52299.81;5120301;27;20217;-81
2024/01/25 02:49:54;;;;;;;6.90;1.27;;;;;;;-145.69;62.96;52278.03;5135353;27;20282;-81
2024/01/25 02:52:20;;;;;;;5.00;1.50;;;;;;;-145.69;63.32;52266.16;5135332;28;20201;-81
2024/01/25 02:54:47;;;;;;;5.83;1.37;;;;;;;-145.69;63.41;52283.97;5135240;28;20200;-81
2024/01/25 02:57:14;;;;;;;7.40;1.13;;;;;;;-145.69;63.61;52287.94;5135228;27;20188;-81
2024/01/25 02:59:41;;;;;;;6.00;1.30;;;;;;;-145.69;63.90;52295.84;5135010;27;20193;-81
2024/01/25 03:02:07;;;;;;;6.20;1.50;;;;;;;-145.69;63.99;52285.97;5134935;28;20554;-81
2024/01/25 03:04:34;;;;;;;7.17;1.40;;;;;;;-145.69;64.33;52278.03;5134450;27;20196;-81
2024/01/25 03:07:00;;;;;;;5.90;1.30;;;;;;;-145.69;65.27;52303.78;5134455;27;20221;-81
2024/01/25 03:09:28;;;;;;;7.83;1.30;;;;;;;-145.69;65.89;52285.97;5134933;27;20197;-81
2024/01/25 03:11:54;;;;;;;5.10;1.30;;;;;;;-145.69;65.77;52309.72;5135014;27;20204;-81
2024/01/25 03:14:22;;;;;;;4.37;1.10;;;;;;;-145.69;66.01;52297.84;5135242;27;20655;-81
2024/01/25 03:16:51;;;;;;;3.07;1.20;;;;;;;-145.69;65.88;52337.44;5135085;28;20275;-81
2024/01/25 03:19:18;;;;;;;4.30;1.17;;;;;;;-145.69;65.95;52289.91;5135031;28;20192;-81
2024/01/25 03:21:44;;;;;;;7.20;1.30;;;;;;;-145.69;66.06;52317.66;5134892;27;20197;-82
2024/01/25 03:24:11;;;;;;;4.77;1.10;;;;;;;-145.69;65.78;52289.91;5134511;27;20192;-81
2024/01/25 03:26:37;;;;;;;5.40;1.23;;;;;;;-145.69;65.97;52319.63;5134637;27;20270;-81
2024/01/25 03:29:03;;;;;;;5.97;1.77;;;;;;;-145.69;66.13;52282.00;5134038;27;20734;-81
2024/01/25 03:31:33;;;;;;;6.57;1.43;;;;;;;-145.69;66.21;52303.78;5134260;28;20655;-81
2024/01/25 03:34:02;;;;;;;6.93;1.50;;;;;;;-145.69;66.44;52297.84;5135011;27;20643;-81
2024/01/25 03:36:28;;;;;;;4.90;1.60;;;;;;;-145.69;66.53;52307.75;5134493;27;20204;-81
2024/01/25 03:38:55;;;;;;;9.47;1.57;;;;;;;-145.69;66.50;52295.84;5134648;28;20200;-81
2024/01/25 03:41:29;;;;;;;8.10;1.17;;;;;;;-145.69;66.90;52258.22;5134398;28;20200;-81
2024/01/25 03:43:55;;;;;;;8.93;1.73;;;;;;;-145.69;66.18;52270.13;5134652;27;20205;-81
2024/01/25 03:46:22;;;;;;;7.73;1.63;;;;;;;-145.69;66.66;52274.06;5134624;28;20197;-81
2024/01/25 03:48:49;;;;;;;8.80;1.40;;;;;;;-145.69;66.63;52274.06;5096767;27;1068785;-80
2024/01/25 03:51:16;;;;;;;5.97;1.20;;;;;;;-145.69;66.46;52250.31;5135682;27;20442;-81
2024/01/25 03:53:43;;;;;;;4.07;1.13;;;;;;;-145.69;65.95;52297.84;5135319;27;20246;-81
2024/01/25 03:56:12;;;;;;;4.57;1.57;;;;;;;-145.69;65.98;52280.00;5134264;27;20204;-81
2024/01/25 03:58:39;;;;;;;6.50;1.67;;;;;;;-145.69;66.39;52309.72;5135007;27;20225;-81
2024/01/25 04:01:05;;;;;;;3.27;0.90;;;;;;;-145.69;65.85;52309.72;5135485;27;20204;-81
2024/01/25 04:03:32;;;;;;;2.27;1.20;;;;;;;-145.69;65.72;52287.94;5135441;27;20193;-82
2024/01/25 04:06:00;;;;;;;7.57;1.10;;;;;;;-145.69;65.99;52297.84;5134780;27;20204;-81
2024/01/25 04:08:26;;;;;;;8.53;1.43;;;;;;;-145.69;65.96;52297.84;5133566;27;20594;-81
2024/01/25 04:10:53;;;;;;;3.43;1.60;;;;;;;-145.69;65.62;52305.75;5134947;27;20204;-81
2024/01/25 04:13:19;;;;;;;6.33;1.37;;;;;;;-145.69;65.43;52309.72;5133405;27;20830;-80
2024/01/25 04:15:46;;;;;;;4.27;1.20;;;;;;;-145.69;65.54;52297.84;5135071;27;20196;-81
2024/01/25 04:18:12;;;;;;;6.67;1.10;;;;;;;-145.69;65.13;52291.91;5133951;27;20207;-81
2024/01/25 04:20:39;;;;;;;0.80;0.80;;;;;;;-145.69;65.57;52272.09;5133581;27;20261;-81
2024/01/25 04:23:07;;;;;;;9.63;1.43;;;;;;;-145.69;65.67;52301.81;5133618;27;20200;-81
2024/01/25 04:25:33;;;;;;;6.70;1.20;;;;;;;-145.69;65.81;52283.97;5134716;27;20207;-81
2024/01/25 04:28:00;;;;;;;5.07;1.47;;;;;;;-145.69;66.38;52289.91;5134644;27;20578;-81
2024/01/25 04:30:26;;;;;;;4.07;1.17;;;;;;;-145.69;66.38;52264.16;5134409;27;20711;-81
2024/01/25 04:32:53;;;;;;;6.77;1.33;;;;;;;-145.69;66.08;52289.91;5134219;27;20196;-81
2024/01/25 04:35:20;;;;;;;7.10;0.90;;;;;;;-145.69;66.29;52299.81;5134722;27;20201;-81
2024/01/25 04:37:46;;;;;;;6.23;1.30;;;;;;;-145.69;66.93;52315.66;5134586;27;20658;-81
2024/01/25 04:40:14;;;;;;;5.97;1.23;;;;;;;-145.69;67.17;52293.88;5134351;27;20216;-81
2024/01/25 04:42:42;;;;;;;3.83;1.30;;;;;;;-145.69;67.18;52301.81;5134391;27;20193;-81
2024/01/25 04:45:09;;;;;;;3.53;0.80;;;;;;;-145.69;67.59;52268.13;5134635;27;20257;-81
2024/01/25 04:47:38;;;;;;;4.67;1.13;;;;;;;-145.69;67.50;52305.75;5134964;27;20232;-81
2024/01/25 04:50:05;;;;;;;2.20;0.90;;;;;;;-145.69;67.58;52307.75;5133941;27;20629;-81
2024/01/25 04:52:32;;;;;;;2.03;0.90;;;;;;;-145.69;67.62;52274.06;5130097;27;20280;-81
2024/01/25 04:55:00;;;;;;;2.07;0.90;;;;;;;-145.69;68.32;52321.59;5113720;28;20288;-81
2024/01/25 04:57:28;;;;;;;1.13;0.90;;;;;;;-145.69;67.75;52291.91;5113673;28;20194;-81
2024/01/25 04:59:54;;;;;;;3.93;1.47;;;;;;;-145.69;68.52;52289.91;5131709;27;20193;-81
2024/01/25 05:02:21;;;;;;;2.57;1.00;;;;;;;-145.69;66.93;52268.13;5134177;27;20196;-81
2024/01/25 05:04:50;;;;;;;4.27;1.10;;;;;;;-145.69;67.71;52303.78;5133617;27;20882;-81
2024/01/25 05:07:17;;;;;;;3.20;1.47;;;;;;;-145.69;68.03;52311.69;5133990;27;20212;-81
2024/01/25 05:09:43;;;;;;;1.43;0.90;;;;;;;-145.69;68.61;52305.75;5133525;27;20706;-81
2024/01/25 05:12:09;;;;;;;6.47;1.30;;;;;;;-145.69;68.46;52313.69;5132899;27;20204;-80
2024/01/25 05:14:37;;;;;;;2.97;1.17;;;;;;;-145.69;68.53;52282.00;5133439;27;20231;-81
2024/01/25 05:17:06;;;;;;;2.77;1.33;;;;;;;-145.69;68.22;52319.63;5133234;27;20196;-81
2024/01/25 05:19:33;;;;;;;6.90;1.33;;;;;;;-145.69;68.89;52325.56;5133187;27;20193;-81
2024/01/25 05:22:00;;;;;;;6.43;1.30;;;;;;;-145.69;68.32;52270.13;5133569;27;20671;-81
2024/01/25 05:24:26;;;;;;;9.60;1.70;;;;;;;-145.69;69.05;52268.13;5133846;27;20200;-81
2024/01/25 05:26:53;;;;;;;5.97;1.50;;;;;;;-145.69;68.68;52305.75;5133364;27;20651;-80
2024/01/25 05:29:19;;;;;;;8.83;1.67;;;;;;;-145.69;68.80;52313.69;5133018;27;20216;-81
2024/01/25 05:31:48;;;;;;;2.93;1.10;;;;;;;-145.69;69.06;52291.91;5133745;27;20203;-81
2024/01/25 05:34:15;;;;;;;5.97;1.90;;;;;;;-145.69;68.91;52323.59;5133364;27;20559;-81
2024/01/25 05:36:42;;;;;;;5.37;1.83;;;;;;;-145.69;68.70;52287.94;5133691;27;20197;-81
2024/01/25 05:39:08;;;;;;;4.23;1.50;;;;;;;-145.69;68.46;52337.44;5133462;27;20211;-80
2024/01/25 05:41:35;;;;;;;5.57;1.90;;;;;;;-145.69;68.35;52297.84;5113093;28;20247;-80
2024/01/25 05:44:01;;;;;;;6.20;1.40;;;;;;;-145.69;68.79;52345.38;5112797;28;20203;-80
2024/01/25 05:46:28;;;;;;;4.40;0.97;;;;;;;-145.69;68.67;52303.78;5112642;28;20297;-81
2024/01/25 05:48:55;;;;;;;4.07;1.33;;;;;;;-145.69;68.71;52321.59;5115620;28;20239;-81
2024/01/25 05:51:22;;;;;;;6.77;1.20;;;;;;;-145.69;68.15;52329.53;5133327;27;20192;-82
2024/01/25 05:53:49;;;;;;;3.27;0.90;;;;;;;-145.69;68.34;52282.00;5133680;27;20283;-81
2024/01/25 05:56:15;;;;;;;2.60;0.83;;;;;;;-145.69;68.02;52325.56;5133482;28;20555;-81
2024/01/25 05:58:42;;;;;;;2.17;0.83;;;;;;;-145.69;67.68;52291.91;5133406;27;20651;-81
2024/01/25 06:01:08;;;;;;;0.90;0.70;;;;;;;-145.69;66.72;52293.88;5133452;28;20284;-81
2024/01/25 06:03:35;;;;;;;4.43;0.97;;;;;;;-145.69;67.03;52323.59;5132765;27;20199;-81
2024/01/25 06:06:03;;;;;;;3.40;0.80;;;;;;;-145.69;66.75;52301.81;5133196;27;20197;-81
2024/01/25 06:08:29;;;;;;;1.17;0.73;;;;;;;-145.69;67.03;52329.53;5133190;27;20224;-81
2024/01/25 06:10:56;;;;;;;3.83;0.90;;;;;;;-145.69;67.01;52337.44;5133016;27;20189;-80
2024/01/25 06:13:22;;;;;;;2.77;1.03;;;;;;;-145.69;66.94;52321.59;5133183;27;20192;-81
2024/01/25 06:15:50;;;;;;;5.03;1.20;;;;;;;-145.69;66.79;52325.56;5132884;27;20193;-79
2024/01/25 06:18:17;;;;;;;9.33;1.00;;;;;;;-145.69;66.27;52303.78;5133130;28;20647;-80
2024/01/25 06:20:44;;;;;;;2.57;1.00;;;;;;;-145.69;66.75;52289.91;5133098;27;20644;-80
2024/01/25 06:23:12;;;;;;;2.37;1.30;;;;;;;-145.69;66.03;52333.47;5132868;27;20232;-80
2024/01/25 06:25:38;;;;;;;3.00;0.90;;;;;;;-145.69;66.75;52297.84;5133198;27;20207;-80
2024/01/25 06:28:05;;;;;;;4.10;0.90;;;;;;;-145.69;66.06;52301.81;5133053;27;20244;-80
2024/01/25 06:30:31;;;;;;;1.47;0.70;;;;;;;-145.69;66.39;52305.75;5133060;27;20193;-81
2024/01/25 06:32:58;;;;;;;2.87;0.93;;;;;;;-145.69;66.46;52323.59;5133092;28;20197;-80
2024/01/25 06:35:24;;;;;;;3.33;1.00;;;;;;;-145.69;66.23;52301.81;5133193;28;20201;-81
2024/01/25 06:37:50;;;;;;;4.20;1.13;;;;;;;-145.69;65.48;52293.88;5133065;28;20670;-79
2024/01/25 06:40:21;;;;;;;3.77;1.63;;;;;;;-145.69;65.82;52341.41;5133770;27;20200;-81
2024/01/25 06:42:47;;;;;;;4.80;1.53;;;;;;;-145.69;66.13;52297.84;5137264;27;20197;-81
2024/01/25 06:45:14;;;;;;;3.53;1.80;;;;;;;-145.69;66.68;52317.66;5136835;27;20205;-81
2024/01/25 06:47:42;;;;;;;5.20;1.38;;;;;;;-145.69;67.21;52305.75;5136320;27;20433;-80
2024/01/25 06:50:11;;;;;;;5.43;1.47;;;;;;;-145.69;67.18;52313.69;5137018;27;20232;-81
2024/01/25 06:52:37;;;;;;;2.20;1.70;;;;;;;-145.69;67.13;52293.88;5147650;27;20666;-81
2024/01/25 06:55:05;;;;;;;4.33;1.67;;;;;;;-145.69;67.57;52321.59;5157389;27;20677;-81
2024/01/25 06:57:32;;;;;;;3.43;1.20;;;;;;;-145.69;67.50;52297.84;5157407;27;20213;-81
2024/01/25 06:59:59;;;;;;;4.27;1.30;;;;;;;-145.69;68.07;52297.84;5157962;27;20200;-80
2024/01/25 07:02:26;;;;;;;4.90;1.80;;;;;;;-145.69;68.18;52317.66;5157994;27;20226;-81
2024/01/25 07:04:53;;;;;;;3.17;1.47;;;;;;;-145.69;68.08;52301.81;5135777;27;20227;-80
2024/01/25 07:07:20;;;;;;;1.60;1.37;;;;;;;-145.69;68.18;52321.59;5136548;27;20287;-80
2024/01/25 07:09:46;;;;;;;2.80;1.17;;;;;;;-145.69;67.42;52331.50;5137427;27;20220;-80
2024/01/25 07:12:13;;;;;;;1.63;0.90;;;;;;;-145.69;68.18;52295.84;5136888;27;20196;-80
2024/01/25 07:14:41;;;;;;;5.30;1.27;;;;;;;-145.69;67.77;52317.66;5136182;27;20197;-81
2024/01/25 07:17:07;;;;;;;2.23;1.10;;;;;;;-145.69;67.79;52270.13;5136308;27;20196;-80
2024/01/25 07:19:34;;;;;;;2.17;1.13;;;;;;;-145.69;68.13;52333.47;5136298;27;20216;-80
2024/01/25 07:22:00;;;;;;;5.30;1.10;;;;;;;-145.69;67.23;52309.72;5136223;27;20204;-80
2024/01/25 07:24:27;;;;;;;2.27;1.00;;;;;;;-145.69;67.38;52305.75;5136296;27;20200;-80
2024/01/25 07:26:53;;;;;;;1.03;0.77;;;;;;;-145.69;67.78;52325.56;5136070;27;20647;-80
2024/01/25 07:29:20;;;;;;;2.83;1.20;;;;;;;-145.69;67.35;52323.59;5135655;27;20220;-81
2024/01/25 07:31:47;;;;;;;2.90;1.03;;;;;;;-145.69;67.20;52278.03;5135907;27;20205;-80
2024/01/25 07:34:14;;;;;;;4.80;1.40;;;;;;;-145.69;66.88;52293.88;5135799;27;20200;-80
2024/01/25 07:36:40;;;;;;;1.40;0.90;;;;;;;-145.69;67.20;52295.84;5135642;27;20196;-80
2024/01/25 07:39:08;;;;;;;3.63;1.03;;;;;;;-145.69;66.66;52301.81;5135485;27;20193;-80
2024/01/25 07:41:34;;;;;;;6.10;1.20;;;;;;;-145.69;66.26;52291.91;5135266;27;20193;-80
2024/01/25 07:44:01;;;;;;;5.00;1.03;;;;;;;-145.69;66.90;52317.66;5135975;27;20279;-80
2024/01/25 07:46:27;;;;;;;3.45;0.95;;;;;;;-145.69;67.80;52321.59;5134560;27;20440;-80
2024/01/25 07:48:55;;;;;;;2.00;1.17;;;;;;;-145.69;67.28;52305.75;5135221;27;20236;-79
2024/01/25 07:51:22;;;;;;;2.93;1.23;;;;;;;-145.69;66.16;52305.75;5134576;27;20200;-79
2024/01/25 07:53:48;;;;;;;6.20;1.30;;;;;;;-145.69;66.17;52325.56;5135362;27;20193;-80
2024/01/25 07:56:15;;;;;;;3.83;1.87;;;;;;;-145.69;66.37;52303.78;5135388;27;20212;-79
2024/01/25 07:58:41;;;;;;;5.47;1.80;;;;;;;-145.69;66.30;52295.84;5135362;27;20562;-80
2024/01/25 08:01:08;;;;;;;3.60;1.97;;;;;;;-145.69;66.69;52299.81;5135541;27;20203;-80
2024/01/25 08:03:36;;;;;;;3.07;1.60;;;;;;;-145.69;66.55;52305.75;5135178;27;20193;-80
2024/01/25 08:06:04;;;;;;;4.70;1.17;;;;;;;-145.69;65.98;52276.06;5134890;27;20726;-80
2024/01/25 08:08:30;;;;;;;6.90;1.60;;;;;;;-145.69;65.83;52295.84;5135104;27;20532;-79
2024/01/25 08:10:58;;;;;;;2.90;1.40;;;;;;;-145.69;66.16;52293.88;5134905;27;20197;-80
2024/01/25 08:13:24;;;;;;;2.93;1.43;;;;;;;-145.69;66.08;52313.69;5135073;27;20593;-80
2024/01/25 08:15:51;;;;;;;4.20;1.60;;;;;;;-145.69;66.23;52287.94;5135200;27;20197;-82
2024/01/25 08:18:19;;;;;;;4.87;1.20;;;;;;;-145.69;65.35;52289.91;5135137;27;20203;-81
2024/01/25 08:20:45;;;;;;;6.23;1.73;;;;;;;-145.69;65.92;52285.97;5135094;27;20201;-81
2024/01/25 08:23:13;;;;;;;3.33;1.20;;;;;;;-145.69;65.67;52285.97;5134793;27;20193;-82
2024/01/25 08:25:40;;;;;;;4.93;1.70;;;;;;;-145.69;64.69;52303.78;5135345;27;20228;-81
2024/01/25 08:28:06;;;;;;;5.53;1.23;;;;;;;-145.69;64.94;52289.91;5135836;27;20204;-74
2024/01/25 08:30:33;;;;;;;3.03;0.97;;;;;;;-145.69;64.81;52289.91;5135606;27;20228;-80
2024/01/25 08:32:59;;;;;;;3.73;1.10;;;;;;;-145.69;64.92;52295.84;5134723;27;20719;-80
2024/01/25 08:35:26;;;;;;;3.47;1.23;;;;;;;-145.69;64.60;52299.81;5134508;27;20204;-80
2024/01/25 08:37:52;;;;;;;3.10;1.10;;;;;;;-145.69;64.62;52337.44;5134704;27;20204;-80
2024/01/25 08:40:20;;;;;;;4.50;1.20;;;;;;;-145.69;64.73;52293.88;5134418;27;20200;-81
2024/01/25 08:42:47;;;;;;;4.80;1.10;;;;;;;-145.69;64.10;52276.06;5136910;27;20651;-80
2024/01/25 08:45:13;;;;;;;4.53;1.07;;;;;;;-145.69;63.96;52289.91;5137095;27;20200;-81
2024/01/25 08:47:40;;;;;;;4.50;1.00;;;;;;;-145.69;64.06;52307.75;5134774;27;20201;-80
2024/01/25 08:50:10;;;;;;;7.63;1.93;;;;;;;-145.69;63.49;52266.16;5134131;27;20233;-80
2024/01/25 08:52:37;;;;;;;5.50;1.20;;;;;;;-145.69;63.86;52309.72;5132353;27;20211;-81
2024/01/25 08:55:05;;;;;;;2.37;1.13;;;;;;;-145.69;64.18;52329.53;5132460;27;20196;-81
2024/01/25 08:57:33;;;;;;;5.07;1.90;;;;;;;-145.69;64.22;52325.56;5134533;27;20192;-80
2024/01/25 09:00:00;;;;;;;6.83;1.60;;;;;;;-145.69;63.76;52297.84;5133603;27;20192;-80
2024/01/25 09:02:29;;;;;;;6.37;1.47;;;;;;;-145.69;63.17;52299.81;5134281;27;20192;-81
2024/01/25 09:04:55;;;;;;;4.67;1.57;;;;;;;-145.69;63.31;52274.06;5134016;27;20261;-80
2024/01/25 09:07:22;;;;;;;6.50;1.47;;;;;;;-145.69;62.99;52303.78;5134345;27;20216;-81
2024/01/25 09:09:49;;;;;;;7.50;1.80;;;;;;;-145.69;62.09;52291.91;5132504;27;20586;-80
2024/01/25 09:12:16;;;;;;;7.07;1.77;;;;;;;-145.69;63.38;52295.84;5143378;27;20207;-80
2024/01/25 09:14:44;;;;;;;7.70;1.73;;;;;;;-145.69;63.28;52287.94;5133712;27;20253;-80
2024/01/25 09:17:10;;;;;;;6.73;2.07;;;;;;;-145.69;63.04;52305.75;5133767;27;20756;-80
2024/01/25 09:19:37;;;;;;;14.13;2.37;;;;;;;-145.69;63.10;52331.50;5133782;27;20197;-80
2024/01/25 09:22:07;;;;;;;13.07;1.90;;;;;;;-145.69;63.16;52283.97;5133860;27;20646;-79
2024/01/25 09:24:36;;;;;;;12.90;2.27;;;;;;;-145.69;64.33;52270.13;5129176;27;20202;-81
2024/01/25 09:27:02;;;;;;;8.17;1.97;;;;;;;-145.69;64.59;52287.94;5122240;27;20575;-80
2024/01/25 09:29:29;;;;;;;6.63;1.70;;;;;;;-145.69;63.56;52315.66;5134083;27;20223;-80
2024/01/25 09:31:57;;;;;;;12.10;2.13;;;;;;;-145.69;63.98;52317.66;5134307;27;20197;-82
2024/01/25 09:34:23;;;;;;;9.83;2.00;;;;;;;-145.69;63.66;52293.88;5135185;27;20200;-80
2024/01/25 09:36:50;;;;;;;11.63;1.73;;;;;;;-145.69;63.09;52293.88;5135172;27;20196;-80
2024/01/25 09:39:16;;;;;;;11.33;2.10;;;;;;;-145.69;62.76;52289.91;5135697;27;20203;-80
2024/01/25 09:41:44;;;;;;;4.93;1.40;;;;;;;-145.69;62.99;52321.59;5128681;27;20716;-81
2024/01/25 09:44:12;;;;;;;9.97;2.13;;;;;;;-145.69;62.39;52307.75;5124205;27;20207;-81
2024/01/25 09:46:40;;;;;;;8.83;1.93;;;;;;;-145.69;61.74;52283.97;5134205;28;20555;-81
2024/01/25 09:49:09;;;;;;;11.27;1.90;;;;;;;-145.69;61.72;52270.13;5133393;27;20698;-80
2024/01/25 09:51:38;;;;;;;14.07;1.80;;;;;;;-145.69;61.68;52276.06;5134038;27;20212;-79
2024/01/25 09:54:06;;;;;;;12.73;1.93;;;;;;;-145.69;61.49;52266.16;5134253;27;20242;-81
2024/01/25 09:56:34;;;;;;;13.63;2.10;;;;;;;-145.69;60.86;52228.53;5133008;28;20193;-80
2024/01/25 09:59:05;;;;;;;13.30;2.13;;;;;;;-145.69;58.28;52282.00;5124559;27;20683;-81
2024/01/25 10:01:40;;;;;;;10.80;2.03;;;;;;;-145.69;58.00;52285.97;5112657;28;20201;-80
2024/01/25 10:04:09;;;;;;;10.60;2.00;;;;;;;-145.69;57.79;52248.34;5113422;28;20197;-81
2024/01/25 10:06:35;;;;;;;15.27;2.20;;;;;;;-145.69;58.02;52270.13;5113287;28;20345;-82
2024/01/25 10:09:01;;;;;;;10.70;2.00;;;;;;;-145.69;57.68;52262.19;5131297;27;20209;-81
2024/01/25 10:11:35;;;;;;;12.30;2.13;;;;;;;-145.69;57.61;52258.22;5132532;27;20212;-81
2024/01/25 10:14:03;;;;;;;9.25;1.85;;;;;;;-145.69;57.85;52226.53;5132319;27;20200;-81
2024/01/25 10:16:30;;;;;;;13.30;2.33;;;;;;;-145.69;57.22;52260.22;5124008;27;20281;-82
2024/01/25 10:18:57;;;;;;;11.27;2.17;;;;;;;-145.69;56.96;52244.38;5116897;28;20198;-81
2024/01/25 10:21:27;;;;;;;13.18;2.15;;;;;;;-145.69;55.87;52254.28;5137228;27;20271;-82
2024/01/25 10:23:54;;;;;;;19.02;2.40;;;;;;;-145.69;55.64;52252.28;5137102;27;20208;-81
2024/01/25 10:26:21;;;;;;;10.57;2.20;;;;;;;-145.69;54.51;52299.81;5136328;27;20201;-81
2024/01/25 10:28:52;;;;;;;13.73;2.70;;;;;;;-145.69;55.26;52254.28;5135929;27;20207;-81
2024/01/25 10:31:19;;;;;;;8.68;2.33;;;;;;;-145.69;55.11;52266.16;5135589;27;20570;-81
2024/01/25 10:33:46;;;;;;;9.48;1.83;;;;;;;-145.69;55.17;52224.56;5120789;27;20209;-82
2024/01/25 10:36:16;;;;;;;11.70;2.70;;;;;;;-145.69;55.06;52234.47;5115014;28;20200;-81
2024/01/25 10:38:45;;;;;;;17.13;2.30;;;;;;;-145.69;54.20;52250.31;5115158;28;20978;-81
2024/01/25 10:41:14;;;;;;;15.15;2.20;;;;;;;-145.69;53.57;52248.34;5115066;28;20196;-81
2024/01/25 10:43:43;;;;;;;15.23;2.55;;;;;;;-145.69;53.35;52252.28;5122517;27;20200;-81
2024/01/25 10:46:09;;;;;;;10.32;1.80;;;;;;;-145.69;53.96;52262.19;5136723;27;20197;-81
2024/01/25 10:48:37;;;;;;;12.68;2.17;;;;;;;-145.69;53.09;52258.22;5136541;27;20232;-81
2024/01/25 10:51:05;;;;;;;9.95;1.85;;;;;;;-145.69;52.74;52252.28;5135561;27;20231;-81
2024/01/25 10:53:34;;;;;;;13.48;2.22;;;;;;;-145.69;53.50;52256.25;5135288;27;20205;-81
2024/01/25 10:56:02;;;;;;;15.38;2.33;;;;;;;-145.69;53.53;52270.13;5126269;27;20277;-81
2024/01/25 10:58:31;;;;;;;14.00;1.92;;;;;;;-145.69;53.79;52234.47;5136619;27;20216;-81
2024/01/25 11:00:58;;;;;;;9.90;1.90;;;;;;;-145.69;54.02;52230.50;5135935;27;20237;-82
2024/01/25 11:03:28;;;;;;;3.95;1.45;;;;;;;-145.69;53.96;52230.50;5136154;27;20258;-81
2024/01/25 11:05:56;;;;;;;10.18;1.95;;;;;;;-145.69;54.14;52270.13;5136261;27;20265;-82
2024/01/25 11:08:25;;;;;;;14.15;2.30;;;;;;;-145.69;54.19;52230.50;5116513;27;20544;-83
2024/01/25 11:10:57;;;;;;;13.75;2.53;;;;;;;-145.69;53.88;52234.47;5115532;28;20225;-83
2024/01/25 11:13:29;;;;;;;8.57;1.85;;;;;;;-145.69;53.00;52210.72;5124344;27;20203;-82
2024/01/25 11:15:56;;;;;;;11.20;3.83;;;;;;;-145.69;52.38;52234.47;5136368;27;20283;-82